NDF3PC LSGG-EDDM
Flight info
| Callsign | NDF3PC |
|---|---|
| Flight time | 0h 55m |
| Altitude | 28000 |
| Route | SOSAL1N SOSAL N871 KORED DCT BERSU N871 DITON/N0441F290 DCT NUNRI/N0374F190 T103 BETOS BETOS1B |
| Aircraft | A321/M-SDE3FGHIRWY/LB1 |
Departure
| Time | 2026-05-07 07:44 |
|---|---|
| Airport | Geneva International Airport (LSGG) |
Arrival
| Time | 2026-05-07 08:40 |
|---|---|
| Airport | Munich Airport (EDDM) |
| Time | Latitude | Longitude | Altitude | Speed | Heading |
|---|---|---|---|---|---|
| 2026-05-07 07:16 | 46.22951 | 6.10445 | 1414 ft | 0 kts | 135° |
| 2026-05-07 07:35 | 46.22962 | 6.10430 | 1410 ft | 2 kts | 136° |
| 2026-05-07 07:35 | 46.22976 | 6.10404 | 1414 ft | 4 kts | 96° |
| 2026-05-07 07:35 | 46.22970 | 6.10372 | 1412 ft | 4 kts | 51° |
| 2026-05-07 07:35 | 46.22961 | 6.10356 | 1410 ft | 1 kts | 46° |
| 2026-05-07 07:36 | 46.22960 | 6.10355 | 1410 ft | 0 kts | 46° |
| 2026-05-07 07:38 | 46.22967 | 6.10365 | 1414 ft | 5 kts | 46° |
| 2026-05-07 07:38 | 46.23013 | 6.10433 | 1405 ft | 14 kts | 45° |
| 2026-05-07 07:38 | 46.23099 | 6.10560 | 1411 ft | 21 kts | 45° |
| 2026-05-07 07:39 | 46.23206 | 6.10716 | 1404 ft | 23 kts | 45° |
| 2026-05-07 07:39 | 46.23335 | 6.10819 | 1403 ft | 22 kts | 34° |
| 2026-05-07 07:39 | 46.23449 | 6.10983 | 1400 ft | 24 kts | 45° |
| 2026-05-07 07:39 | 46.23556 | 6.11138 | 1398 ft | 15 kts | 43° |
| 2026-05-07 07:40 | 46.23637 | 6.11112 | 1399 ft | 13 kts | 317° |
| 2026-05-07 07:40 | 46.23710 | 6.11090 | 1407 ft | 11 kts | 32° |
| 2026-05-07 07:40 | 46.23770 | 6.11174 | 1402 ft | 13 kts | 46° |
| 2026-05-07 07:40 | 46.23844 | 6.11282 | 1405 ft | 16 kts | 45° |
| 2026-05-07 07:41 | 46.23928 | 6.11405 | 1401 ft | 19 kts | 45° |
| 2026-05-07 07:41 | 46.24031 | 6.11556 | 1385 ft | 23 kts | 46° |
| 2026-05-07 07:41 | 46.24151 | 6.11731 | 1382 ft | 26 kts | 46° |
| 2026-05-07 07:41 | 46.24283 | 6.11926 | 1382 ft | 28 kts | 46° |
| 2026-05-07 07:42 | 46.24421 | 6.12129 | 1383 ft | 28 kts | 45° |
| 2026-05-07 07:42 | 46.24564 | 6.12339 | 1378 ft | 30 kts | 45° |
| 2026-05-07 07:42 | 46.24715 | 6.12561 | 1374 ft | 27 kts | 45° |
| 2026-05-07 07:42 | 46.24854 | 6.12695 | 1372 ft | 23 kts | 18° |
| 2026-05-07 07:43 | 46.24990 | 6.12689 | 1373 ft | 17 kts | 303° |
| 2026-05-07 07:43 | 46.24952 | 6.12573 | 1373 ft | 0 kts | 225° |
| 2026-05-07 07:43 | 46.24943 | 6.12560 | 1373 ft | 13 kts | 225° |
| 2026-05-07 07:43 | 46.24703 | 6.12210 | 1384 ft | 83 kts | 225° |
| 2026-05-07 07:44 | 46.24150 | 6.11400 | 1397 ft | 141 kts | 225° |
| 2026-05-07 07:44 | 46.23360 | 6.10250 | 1558 ft | 171 kts | 226° |
| 2026-05-07 07:44 | 46.22551 | 6.09032 | 2270 ft | 169 kts | 227° |
| 2026-05-07 07:44 | 46.21699 | 6.07738 | 2577 ft | 194 kts | 227° |
| 2026-05-07 07:45 | 46.20969 | 6.05993 | 2927 ft | 213 kts | 267° |
| 2026-05-07 07:45 | 46.21463 | 6.04102 | 4037 ft | 207 kts | 319° |
| 2026-05-07 07:45 | 46.22805 | 6.03347 | 4926 ft | 218 kts | 359° |
| 2026-05-07 07:45 | 46.24285 | 6.03851 | 5820 ft | 227 kts | 24° |
| 2026-05-07 07:46 | 46.25749 | 6.05078 | 6378 ft | 251 kts | 36° |
| 2026-05-07 07:46 | 46.27146 | 6.06761 | 7032 ft | 275 kts | 41° |
| 2026-05-07 07:46 | 46.28622 | 6.08632 | 7779 ft | 287 kts | 40° |
| 2026-05-07 07:46 | 46.30202 | 6.10555 | 8376 ft | 307 kts | 39° |
| 2026-05-07 07:47 | 46.31884 | 6.12553 | 8942 ft | 323 kts | 38° |
| 2026-05-07 07:47 | 46.33693 | 6.14753 | 8993 ft | 354 kts | 41° |
| 2026-05-07 07:47 | 46.35584 | 6.17244 | 9023 ft | 382 kts | 43° |
| 2026-05-07 07:47 | 46.37588 | 6.19972 | 9021 ft | 406 kts | 43° |
| 2026-05-07 07:48 | 46.39616 | 6.22721 | 9020 ft | 388 kts | 42° |
| 2026-05-07 07:48 | 46.41539 | 6.25296 | 9085 ft | 365 kts | 42° |
| 2026-05-07 07:48 | 46.43349 | 6.27714 | 9869 ft | 345 kts | 41° |
| 2026-05-07 07:48 | 46.45085 | 6.30039 | 10820 ft | 342 kts | 41° |
| 2026-05-07 07:49 | 46.46883 | 6.32450 | 11061 ft | 359 kts | 41° |
| 2026-05-07 07:49 | 46.48735 | 6.34937 | 11591 ft | 366 kts | 41° |
| 2026-05-07 07:49 | 46.50612 | 6.37458 | 12201 ft | 370 kts | 41° |
| 2026-05-07 07:49 | 46.52510 | 6.40008 | 12843 ft | 373 kts | 41° |
| 2026-05-07 07:50 | 46.54265 | 6.42816 | 13467 ft | 379 kts | 53° |
| 2026-05-07 07:50 | 46.55590 | 6.46143 | 14060 ft | 384 kts | 66° |
| 2026-05-07 07:50 | 46.56410 | 6.49852 | 14611 ft | 388 kts | 78° |
| 2026-05-07 07:50 | 46.56671 | 6.53678 | 15167 ft | 392 kts | 90° |
| 2026-05-07 07:51 | 46.56583 | 6.57741 | 15770 ft | 395 kts | 92° |
| 2026-05-07 07:51 | 46.56485 | 6.61743 | 16361 ft | 398 kts | 92° |
| 2026-05-07 07:51 | 46.56382 | 6.65780 | 16942 ft | 401 kts | 92° |
| 2026-05-07 07:51 | 46.56276 | 6.69847 | 17519 ft | 405 kts | 92° |
| 2026-05-07 07:52 | 46.56170 | 6.73954 | 18081 ft | 408 kts | 92° |
| 2026-05-07 07:52 | 46.56065 | 6.78086 | 18601 ft | 412 kts | 92° |
| 2026-05-07 07:52 | 46.56053 | 6.82260 | 19106 ft | 414 kts | 85° |
| 2026-05-07 07:52 | 46.56519 | 6.86389 | 19625 ft | 415 kts | 74° |
| 2026-05-07 07:53 | 46.57487 | 6.90345 | 20139 ft | 417 kts | 64° |
| 2026-05-07 07:53 | 46.58929 | 6.93993 | 20641 ft | 417 kts | 53° |
| 2026-05-07 07:53 | 46.60710 | 6.97262 | 21136 ft | 419 kts | 49° |
| 2026-05-07 07:53 | 46.62579 | 7.00598 | 21646 ft | 421 kts | 50° |
| 2026-05-07 07:54 | 46.64395 | 7.03862 | 22121 ft | 423 kts | 50° |
| 2026-05-07 07:54 | 46.66278 | 7.07256 | 22603 ft | 425 kts | 50° |
| 2026-05-07 07:54 | 46.68139 | 7.10624 | 23045 ft | 428 kts | 50° |
| 2026-05-07 07:54 | 46.70006 | 7.14008 | 23513 ft | 430 kts | 49° |
| 2026-05-07 07:55 | 46.71885 | 7.17414 | 23915 ft | 432 kts | 50° |
| 2026-05-07 07:55 | 46.73766 | 7.20831 | 24320 ft | 433 kts | 50° |
| 2026-05-07 07:55 | 46.75627 | 7.24216 | 24734 ft | 434 kts | 50° |
| 2026-05-07 07:55 | 46.77542 | 7.27699 | 25149 ft | 435 kts | 49° |
| 2026-05-07 07:56 | 46.79440 | 7.31151 | 25560 ft | 437 kts | 50° |
| 2026-05-07 07:56 | 46.81342 | 7.34614 | 25961 ft | 438 kts | 50° |
| 2026-05-07 07:56 | 46.83226 | 7.38048 | 26354 ft | 440 kts | 50° |
| 2026-05-07 07:56 | 46.85166 | 7.41588 | 26734 ft | 441 kts | 50° |
| 2026-05-07 07:57 | 46.87084 | 7.45098 | 27093 ft | 443 kts | 50° |
| 2026-05-07 07:57 | 46.89006 | 7.48628 | 27463 ft | 445 kts | 50° |
| 2026-05-07 07:57 | 46.90907 | 7.52130 | 27820 ft | 446 kts | 50° |
| 2026-05-07 07:57 | 46.92864 | 7.55737 | 28006 ft | 445 kts | 50° |
| 2026-05-07 07:58 | 46.94765 | 7.59243 | 28035 ft | 436 kts | 50° |
| 2026-05-07 07:58 | 46.98492 | 7.66119 | 28020 ft | 433 kts | 50° |
| 2026-05-07 07:59 | 47.02226 | 7.73030 | 28031 ft | 433 kts | 50° |
| 2026-05-07 07:59 | 47.05958 | 7.79951 | 28022 ft | 433 kts | 50° |
| 2026-05-07 08:00 | 47.09081 | 7.85763 | 28021 ft | 433 kts | 50° |
| 2026-05-07 08:00 | 47.12778 | 7.92666 | 28033 ft | 433 kts | 50° |
| 2026-05-07 08:01 | 47.16095 | 8.00061 | 28051 ft | 434 kts | 56° |
| 2026-05-07 08:01 | 47.19299 | 8.07591 | 28043 ft | 434 kts | 56° |
| 2026-05-07 08:02 | 47.22507 | 8.15116 | 28046 ft | 434 kts | 56° |
| 2026-05-07 08:02 | 47.25704 | 8.22642 | 28051 ft | 434 kts | 56° |
| 2026-05-07 08:03 | 47.28897 | 8.30184 | 28049 ft | 434 kts | 57° |
| 2026-05-07 08:03 | 47.31347 | 8.38317 | 28057 ft | 437 kts | 70° |
| 2026-05-07 08:04 | 47.33224 | 8.46810 | 28051 ft | 436 kts | 70° |
| 2026-05-07 08:04 | 47.35107 | 8.55327 | 28053 ft | 437 kts | 70° |
| 2026-05-07 08:05 | 47.36988 | 8.63847 | 28059 ft | 437 kts | 70° |
| 2026-05-07 08:05 | 47.38854 | 8.72388 | 28056 ft | 437 kts | 70° |
| 2026-05-07 08:06 | 47.40706 | 8.80940 | 28060 ft | 438 kts | 70° |
| 2026-05-07 08:06 | 47.42553 | 8.89500 | 28049 ft | 437 kts | 70° |
| 2026-05-07 08:07 | 47.44403 | 8.98058 | 28043 ft | 438 kts | 70° |
| 2026-05-07 08:07 | 47.46253 | 9.06624 | 28033 ft | 438 kts | 70° |
| 2026-05-07 08:08 | 47.48095 | 9.15211 | 28030 ft | 438 kts | 71° |
| 2026-05-07 08:08 | 47.49929 | 9.23811 | 28037 ft | 439 kts | 71° |
| 2026-05-07 08:09 | 47.51762 | 9.32436 | 28044 ft | 440 kts | 71° |
| 2026-05-07 08:09 | 47.53591 | 9.41079 | 28049 ft | 440 kts | 71° |
| 2026-05-07 08:10 | 47.55418 | 9.49738 | 28047 ft | 441 kts | 71° |
| 2026-05-07 08:10 | 47.57235 | 9.58422 | 28042 ft | 442 kts | 71° |
| 2026-05-07 08:11 | 47.58451 | 9.67345 | 28033 ft | 445 kts | 86° |
| 2026-05-07 08:11 | 47.58223 | 9.76522 | 28032 ft | 447 kts | 92° |
| 2026-05-07 08:12 | 47.57858 | 9.85723 | 28022 ft | 448 kts | 93° |
| 2026-05-07 08:12 | 47.57474 | 9.94950 | 28012 ft | 450 kts | 93° |
| 2026-05-07 08:13 | 47.57081 | 10.04204 | 27995 ft | 452 kts | 94° |
| 2026-05-07 08:13 | 47.56882 | 10.08865 | 27570 ft | 453 kts | 94° |
| 2026-05-07 08:13 | 47.56683 | 10.13499 | 27115 ft | 450 kts | 94° |
| 2026-05-07 08:13 | 47.56618 | 10.14999 | 26968 ft | 449 kts | 94° |
| 2026-05-07 08:14 | 47.56440 | 10.19082 | 26568 ft | 447 kts | 94° |
| 2026-05-07 08:14 | 47.56235 | 10.23723 | 26121 ft | 444 kts | 94° |
| 2026-05-07 08:14 | 47.56032 | 10.28273 | 25686 ft | 442 kts | 94° |
| 2026-05-07 08:14 | 47.55831 | 10.32799 | 25256 ft | 439 kts | 94° |
| 2026-05-07 08:15 | 47.55631 | 10.37295 | 24833 ft | 436 kts | 94° |
| 2026-05-07 08:15 | 47.55426 | 10.41762 | 24420 ft | 433 kts | 94° |
| 2026-05-07 08:15 | 47.55221 | 10.46194 | 24009 ft | 430 kts | 94° |
| 2026-05-07 08:15 | 47.55194 | 10.50610 | 23600 ft | 428 kts | 86° |
| 2026-05-07 08:16 | 47.55632 | 10.54944 | 23123 ft | 425 kts | 76° |
| 2026-05-07 08:16 | 47.56516 | 10.59103 | 22651 ft | 423 kts | 67° |
| 2026-05-07 08:16 | 47.57816 | 10.62987 | 22185 ft | 420 kts | 58° |
| 2026-05-07 08:16 | 47.59298 | 10.66628 | 21734 ft | 417 kts | 58° |
| 2026-05-07 08:17 | 47.60789 | 10.70301 | 21279 ft | 415 kts | 58° |
| 2026-05-07 08:17 | 47.62266 | 10.73963 | 20827 ft | 413 kts | 58° |
| 2026-05-07 08:17 | 47.63730 | 10.77616 | 20391 ft | 411 kts | 59° |
| 2026-05-07 08:17 | 47.65181 | 10.81250 | 19962 ft | 409 kts | 59° |
| 2026-05-07 08:18 | 47.66623 | 10.84871 | 19543 ft | 407 kts | 59° |
| 2026-05-07 08:18 | 47.68226 | 10.88317 | 19124 ft | 404 kts | 49° |
| 2026-05-07 08:18 | 47.70169 | 10.91310 | 18707 ft | 401 kts | 39° |
| 2026-05-07 08:18 | 47.72337 | 10.93909 | 18304 ft | 400 kts | 37° |
| 2026-05-07 08:19 | 47.74509 | 10.96470 | 17841 ft | 398 kts | 37° |
| 2026-05-07 08:19 | 47.76665 | 10.99024 | 17383 ft | 395 kts | 37° |
| 2026-05-07 08:19 | 47.78805 | 11.01565 | 16918 ft | 393 kts | 37° |
| 2026-05-07 08:19 | 47.80937 | 11.04097 | 16478 ft | 391 kts | 37° |
| 2026-05-07 08:20 | 47.83053 | 11.06622 | 16043 ft | 389 kts | 37° |
| 2026-05-07 08:20 | 47.85156 | 11.09138 | 15612 ft | 387 kts | 37° |
| 2026-05-07 08:20 | 47.87248 | 11.11638 | 15179 ft | 384 kts | 37° |
| 2026-05-07 08:20 | 47.89331 | 11.14117 | 14756 ft | 382 kts | 37° |
| 2026-05-07 08:21 | 47.91404 | 11.16582 | 14345 ft | 380 kts | 37° |
| 2026-05-07 08:21 | 47.93465 | 11.19034 | 13932 ft | 378 kts | 37° |
| 2026-05-07 08:21 | 47.95515 | 11.21472 | 13493 ft | 376 kts | 37° |
| 2026-05-07 08:21 | 47.97553 | 11.23899 | 13073 ft | 373 kts | 37° |
| 2026-05-07 08:22 | 47.99575 | 11.26318 | 12975 ft | 373 kts | 37° |
| 2026-05-07 08:22 | 48.01599 | 11.28744 | 12843 ft | 373 kts | 37° |
| 2026-05-07 08:22 | 48.03620 | 11.31169 | 12715 ft | 373 kts | 37° |
| 2026-05-07 08:22 | 48.05516 | 11.33722 | 12574 ft | 362 kts | 47° |
| 2026-05-07 08:23 | 48.06999 | 11.36717 | 12401 ft | 357 kts | 59° |
| 2026-05-07 08:23 | 48.08039 | 11.40066 | 12208 ft | 355 kts | 70° |
| 2026-05-07 08:23 | 48.08874 | 11.43541 | 12027 ft | 355 kts | 70° |
| 2026-05-07 08:23 | 48.09712 | 11.47007 | 11849 ft | 354 kts | 70° |
| 2026-05-07 08:24 | 48.10549 | 11.50461 | 11665 ft | 353 kts | 70° |
| 2026-05-07 08:24 | 48.11384 | 11.53913 | 11488 ft | 352 kts | 70° |
| 2026-05-07 08:24 | 48.12216 | 11.57355 | 11314 ft | 352 kts | 70° |
| 2026-05-07 08:24 | 48.13045 | 11.60790 | 11121 ft | 351 kts | 70° |
| 2026-05-07 08:25 | 48.13874 | 11.64225 | 10955 ft | 350 kts | 70° |
| 2026-05-07 08:25 | 48.14698 | 11.67651 | 10785 ft | 349 kts | 70° |
| 2026-05-07 08:25 | 48.15516 | 11.71071 | 10609 ft | 349 kts | 70° |
| 2026-05-07 08:25 | 48.16330 | 11.74488 | 10437 ft | 348 kts | 70° |
| 2026-05-07 08:26 | 48.17916 | 11.81151 | 10085 ft | 329 kts | 70° |
| 2026-05-07 08:26 | 48.18649 | 11.84350 | 9922 ft | 320 kts | 72° |
| 2026-05-07 08:26 | 48.19318 | 11.87489 | 9742 ft | 313 kts | 73° |
| 2026-05-07 08:27 | 48.19955 | 11.90591 | 9546 ft | 311 kts | 73° |
| 2026-05-07 08:27 | 48.20583 | 11.93687 | 9360 ft | 310 kts | 73° |
| 2026-05-07 08:27 | 48.21211 | 11.96771 | 9178 ft | 309 kts | 73° |
| 2026-05-07 08:27 | 48.21840 | 11.99850 | 8980 ft | 308 kts | 73° |
| 2026-05-07 08:28 | 48.22470 | 12.02921 | 8805 ft | 308 kts | 73° |
| 2026-05-07 08:28 | 48.23098 | 12.05980 | 8615 ft | 306 kts | 73° |
| 2026-05-07 08:28 | 48.23724 | 12.09026 | 8435 ft | 306 kts | 72° |
| 2026-05-07 08:28 | 48.24349 | 12.12069 | 8257 ft | 305 kts | 73° |
| 2026-05-07 08:29 | 48.24975 | 12.15101 | 8076 ft | 304 kts | 72° |
| 2026-05-07 08:29 | 48.25600 | 12.18128 | 7895 ft | 303 kts | 72° |
| 2026-05-07 08:29 | 48.26224 | 12.21145 | 7719 ft | 302 kts | 72° |
| 2026-05-07 08:29 | 48.26844 | 12.24151 | 7535 ft | 301 kts | 72° |
| 2026-05-07 08:30 | 48.27459 | 12.27144 | 7365 ft | 300 kts | 72° |
| 2026-05-07 08:30 | 48.28071 | 12.30142 | 7188 ft | 300 kts | 73° |
| 2026-05-07 08:30 | 48.28727 | 12.33110 | 7014 ft | 299 kts | 63° |
| 2026-05-07 08:30 | 48.29906 | 12.35631 | 6845 ft | 294 kts | 40° |
| 2026-05-07 08:31 | 48.31560 | 12.37257 | 6677 ft | 286 kts | 17° |
| 2026-05-07 08:31 | 48.33467 | 12.37859 | 6502 ft | 277 kts | 355° |
| 2026-05-07 08:31 | 48.35329 | 12.37432 | 6330 ft | 266 kts | 335° |
| 2026-05-07 08:31 | 48.36901 | 12.36158 | 6145 ft | 250 kts | 316° |
| 2026-05-07 08:32 | 48.38044 | 12.34294 | 5964 ft | 237 kts | 299° |
| 2026-05-07 08:32 | 48.38716 | 12.32104 | 5775 ft | 227 kts | 283° |
| 2026-05-07 08:32 | 48.38925 | 12.29795 | 5602 ft | 222 kts | 268° |
| 2026-05-07 08:32 | 48.38897 | 12.27486 | 5417 ft | 220 kts | 268° |
| 2026-05-07 08:33 | 48.38879 | 12.25184 | 5249 ft | 218 kts | 268° |
| 2026-05-07 08:33 | 48.38864 | 12.22957 | 5098 ft | 208 kts | 269° |
| 2026-05-07 08:33 | 48.38847 | 12.20810 | 5016 ft | 201 kts | 268° |
| 2026-05-07 08:33 | 48.38829 | 12.18823 | 5003 ft | 179 kts | 268° |
| 2026-05-07 08:34 | 48.38814 | 12.17077 | 4989 ft | 157 kts | 268° |
| 2026-05-07 08:34 | 48.38800 | 12.15469 | 4990 ft | 153 kts | 268° |
| 2026-05-07 08:34 | 48.38784 | 12.13870 | 5003 ft | 153 kts | 268° |
| 2026-05-07 08:34 | 48.38800 | 12.12265 | 5007 ft | 153 kts | 269° |
| 2026-05-07 08:35 | 48.38763 | 12.10664 | 5010 ft | 153 kts | 266° |
| 2026-05-07 08:35 | 48.38680 | 12.09072 | 4962 ft | 152 kts | 264° |
| 2026-05-07 08:35 | 48.38578 | 12.07497 | 4834 ft | 150 kts | 263° |
| 2026-05-07 08:35 | 48.38471 | 12.05957 | 4653 ft | 147 kts | 263° |
| 2026-05-07 08:36 | 48.38360 | 12.04430 | 4445 ft | 146 kts | 263° |
| 2026-05-07 08:36 | 48.38249 | 12.02916 | 4247 ft | 145 kts | 263° |
| 2026-05-07 08:36 | 48.38138 | 12.01414 | 4051 ft | 145 kts | 263° |
| 2026-05-07 08:36 | 48.38027 | 11.99911 | 3859 ft | 144 kts | 263° |
| 2026-05-07 08:37 | 48.37915 | 11.98419 | 3662 ft | 144 kts | 263° |
| 2026-05-07 08:37 | 48.37804 | 11.96926 | 3473 ft | 144 kts | 263° |
| 2026-05-07 08:37 | 48.37693 | 11.95440 | 3281 ft | 143 kts | 262° |
| 2026-05-07 08:37 | 48.37581 | 11.93958 | 3096 ft | 143 kts | 262° |
| 2026-05-07 08:38 | 48.37470 | 11.92480 | 2893 ft | 142 kts | 264° |
| 2026-05-07 08:38 | 48.37359 | 11.91004 | 2700 ft | 142 kts | 264° |
| 2026-05-07 08:38 | 48.37248 | 11.89532 | 2503 ft | 142 kts | 263° |
| 2026-05-07 08:38 | 48.37137 | 11.88058 | 2298 ft | 142 kts | 262° |
| 2026-05-07 08:39 | 48.37025 | 11.86581 | 2091 ft | 142 kts | 263° |
| 2026-05-07 08:39 | 48.36912 | 11.85084 | 1881 ft | 143 kts | 264° |
| 2026-05-07 08:39 | 48.36799 | 11.83596 | 1700 ft | 142 kts | 264° |
| 2026-05-07 08:39 | 48.36688 | 11.82122 | 1515 ft | 141 kts | 264° |
| 2026-05-07 08:40 | 48.36581 | 11.80745 | 1456 ft | 119 kts | 264° |
| 2026-05-07 08:40 | 48.36516 | 11.79901 | 1464 ft | 37 kts | 257° |
| 2026-05-07 08:40 | 48.36406 | 11.79625 | 1466 ft | 28 kts | 234° |
| 2026-05-07 08:40 | 48.36299 | 11.79395 | 1463 ft | 25 kts | 233° |
| 2026-05-07 08:41 | 48.36203 | 11.79278 | 1464 ft | 12 kts | 186° |
| 2026-05-07 08:41 | 48.36127 | 11.79310 | 1463 ft | 15 kts | 161° |
| 2026-05-07 08:41 | 48.36027 | 11.79333 | 1460 ft | 14 kts | 176° |
| 2026-05-07 08:41 | 48.35940 | 11.79356 | 1464 ft | 12 kts | 161° |
| 2026-05-07 08:42 | 48.35870 | 11.79383 | 1464 ft | 10 kts | 173° |
| 2026-05-07 08:42 | 48.35796 | 11.79395 | 1470 ft | 12 kts | 174° |
| 2026-05-07 08:42 | 48.35703 | 11.79412 | 1466 ft | 16 kts | 171° |
| 2026-05-07 08:42 | 48.35582 | 11.79430 | 1472 ft | 19 kts | 174° |
| 2026-05-07 08:43 | 48.35457 | 11.79507 | 1466 ft | 19 kts | 135° |
| 2026-05-07 08:43 | 48.35360 | 11.79605 | 1469 ft | 13 kts | 176° |
| 2026-05-07 08:43 | 48.35284 | 11.79615 | 1467 ft | 10 kts | 172° |
| 2026-05-07 08:43 | 48.35240 | 11.79658 | 1475 ft | 7 kts | 108° |
| 2026-05-07 08:44 | 48.35240 | 11.79704 | 1471 ft | 7 kts | 86° |
| 2026-05-07 08:44 | 48.35245 | 11.79769 | 1473 ft | 4 kts | 84° |
| 2026-05-07 08:44 | 48.35245 | 11.79775 | 1470 ft | 1 kts | 83° |
| 2026-05-07 08:44 | 48.35246 | 11.79785 | 1472 ft | 1 kts | 83° |
| 2026-05-07 08:45 | 48.35247 | 11.79793 | 1474 ft | 0 kts | 83° |